Terminal Aerodrome Forecast
Issued by NWS

Home | Current Version | Previous Version | Text Only | Print | Product List | Glossary On
Versions: 1 2 3 4 5 6 7 8 9 10 11 12 13 14 15 16 17
000
FTUS45 KTFX 162300 RRA
TAFHLN
TAF
KHLN 162341Z 1700/1724 28011KT P6SM SCT060 BKN100
     FM170100 28006KT P6SM VCSH SCT025 OVC040
     FM170600 VRB05KT P6SM SCT045 BKN090
     FM171900 19011KT P6SM VCSH SCT040 BKN070=

USA.gov is the U.S. government's official web portal to all federal, state and local government web resources and services.